Garrison, ND (58540)

10:35 PM CDT on October 24, 2014 (GMT -0500)
Iverson Ranch | Change Station
CLOSE
Current Station
Personal Weather Station
Location: Douglas, ND
Elevation: 2005 ft
Nearby Weather Stations

Elev 2005 ft 47.72 °N, 101.47 °W | Updated 3 seconds ago

Clear
Clear
38.1 °F
Feels Like 38 °F
N
0.0
Wind Variable Wind from NNW
Gusts 2.2 mph

Today
High -- | Low -- °F
--% Chance of Precip.
Yesterday
High -- | Low -- °F
Precip. -- in
8:17 AM 6:40 PM
New Moon, 2% visible
Pressure 30.03 in
Visibility 10.0 miles
Clouds Clear
Windchill 38 °F
Dew Point 30 °F
Humidity 71%
Rainfall 0.00 in
Snow Depth Not available.
UV 0 out of 12
Pollen 2.70 out of 12
Air Quality Not available.
Flu Activity Sporadic
METAR KHZE 250315Z AUTO 22006KT 10SM CLR 07/M02 A3003 RMK AO2

More Conditions Fewer Conditions

Pressure 30.03 in
Visibility 10.0 miles
Clouds Clear
Windchill 38 °F
Dew Point 30 °F
Humidity 71%
Rainfall 0.00 in
Snow Depth Not available.
UV 0 out of 12
Pollen 2.70 out of 12
Air Quality Not available.
Flu Activity Sporadic
METAR KHZE 250315Z AUTO 22006KT 10SM CLR 07/M02 A3003 RMK AO2

More Conditions Fewer Conditions

10-Day Weather Forecast

Almanac

Astronomy

Oct. 24, 2014 Rise Set
Actual Time 8:17 AM CDT 6:40 PM CDT
Civil Twilight 7:46 AM CDT 7:12 PM CDT
Nautical Twilight 7:10 AM CDT 7:48 PM CDT
Astronomical Twilight 6:34 AM CDT 8:24 PM CDT
Moon 9:01 AM CDT (10/24) 7:18 PM CDT (10/24)
Length of Visible Light 11h 26m
Length of Day
10h 23m
Tomorrow will be 3m 12s shorter.
New Moon, 2% of the Moon is Illuminated
Today
New Moon
Oct 30
First Quarter
Nov 6
Full
Nov 14
Last Quarter
Nov 22
New

Today's Extremes

State Highs State Lows

Community

WunderPhotos

Upload Photos

1,764,771 photos uploaded!

Nearby

Snow Depth

Station Depth Elevation
No new snow has been reported.

Earthquake Activity

City Distance Mag. Time & Date
No recent earthquake activity has been reported nearby.
Minimum magnitude displayed is 2.5.

Coastal Water Temperatures

Place Temperature
No Stations Reporting

Nearby Weather Stations